Time;durP1;ratioP1;P1;durP2;ratioP2;P2;SDS_P1;SDS_P2;PMS_P1;PMS_P2;Temp;Humidity;BMP_temperature;BMP_pressure;BME280_temperature;BME280_humidity;BME280_pressure;Samples;Min_cycle;Max_cycle;Signal;HPM_P1;HPM_P2
2022/05/27 00:01:26;;;;;;;6.07;2.20;;;16.10;99.90;;;;;;5075541;28;20220;-70
2022/05/27 00:03:54;;;;;;;5.77;3.57;;;16.10;99.90;;;;;;5077328;28;20419;-70
2022/05/27 00:06:22;;;;;;;3.23;2.20;;;16.10;99.90;;;;;;5076408;28;20236;-70
2022/05/27 00:08:49;;;;;;;4.83;2.40;;;16.00;99.90;;;;;;5076631;28;20263;-71
2022/05/27 00:11:17;;;;;;;4.13;2.00;;;16.00;99.90;;;;;;5076005;28;20297;-70
2022/05/27 00:13:44;;;;;;;3.47;2.60;;;16.00;99.90;;;;;;5086577;28;20213;-71
2022/05/27 00:16:12;;;;;;;3.27;2.17;;;16.00;99.90;;;;;;5076788;28;20687;-71
2022/05/27 00:18:39;;;;;;;3.23;2.37;;;16.00;99.90;;;;;;5072819;28;20729;-70
2022/05/27 00:21:06;;;;;;;3.67;2.10;;;16.00;99.90;;;;;;5073024;28;20205;-70
2022/05/27 00:23:35;;;;;;;5.57;2.20;;;15.90;99.90;;;;;;5072033;28;20285;-70
2022/05/27 00:26:02;;;;;;;2.80;2.30;;;15.90;99.90;;;;;;5068785;28;20304;-70
2022/05/27 00:28:29;;;;;;;3.10;1.97;;;16.00;99.90;;;;;;5076389;28;20659;-70
2022/05/27 00:30:56;;;;;;;3.93;2.10;;;15.90;99.90;;;;;;5077683;28;20292;-70
2022/05/27 00:33:23;;;;;;;3.50;2.60;;;15.90;99.90;;;;;;5076343;28;20197;-70
2022/05/27 00:35:51;;;;;;;4.40;2.63;;;15.90;99.90;;;;;;5076046;28;20213;-71
2022/05/27 00:38:18;;;;;;;4.13;2.30;;;15.90;99.90;;;;;;5083227;28;20211;-70
2022/05/27 00:40:49;;;;;;;3.53;2.30;;;15.80;99.90;;;;;;5082116;28;20254;-71
2022/05/27 00:43:17;;;;;;;4.00;2.27;;;15.80;99.90;;;;;;5081830;28;20213;-70
2022/05/27 00:45:46;;;;;;;4.80;2.60;;;15.80;99.90;;;;;;5074034;28;20201;-70
2022/05/27 00:48:16;;;;;;;3.47;2.30;;;15.80;99.90;;;;;;5065124;28;20278;-70
2022/05/27 00:50:46;;;;;;;3.50;2.30;;;15.80;99.90;;;;;;5082168;28;20269;-70
2022/05/27 00:53:20;;;;;;;4.53;2.67;;;15.80;99.90;;;;;;5075188;28;20580;-70
2022/05/27 00:55:54;;;;;;;3.97;2.37;;;15.80;99.90;;;;;;5090886;28;20269;-71
2022/05/27 00:58:24;;;;;;;4.73;2.17;;;15.80;99.90;;;;;;5076103;28;20266;-70
2022/05/27 01:00:51;;;;;;;4.33;2.17;;;15.80;99.90;;;;;;5074738;28;20261;-70
2022/05/27 01:03:19;;;;;;;3.13;2.13;;;15.70;99.90;;;;;;5076693;28;20209;-70
2022/05/27 01:05:47;;;;;;;4.07;2.37;;;15.80;99.90;;;;;;5076429;28;20268;-70
2022/05/27 01:08:18;;;;;;;3.37;2.40;;;15.70;99.90;;;;;;5075491;28;20221;-70
2022/05/27 01:10:56;;;;;;;3.03;2.37;;;15.70;99.90;;;;;;5074499;28;20205;-70
2022/05/27 01:13:37;;;;;;;5.37;2.30;;;15.70;99.90;;;;;;5076293;28;20197;-71
2022/05/27 01:16:14;;;;;;;3.27;2.50;;;15.70;99.90;;;;;;5071195;28;20283;-71
2022/05/27 01:22:14;;;;;;;4.60;2.20;;;15.70;99.90;;;;;;5073905;28;20353;-70
2022/05/27 01:25:01;;;;;;;5.03;2.37;;;15.70;99.90;;;;;;5064402;28;20205;-71
2022/05/27 01:27:48;;;;;;;4.30;2.47;;;15.70;99.90;;;;;;5069151;28;20225;-71
2022/05/27 01:30:25;;;;;;;2.63;2.27;;;15.60;99.90;;;;;;5063710;28;20607;-71
2022/05/27 01:33:06;;;;;;;3.57;2.47;;;15.70;99.90;;;;;;5074630;28;20201;-71
2022/05/27 01:35:41;;;;;;;3.73;2.27;;;15.60;99.90;;;;;;5073141;28;20201;-71
2022/05/27 01:38:15;;;;;;;5.77;2.30;;;15.60;99.90;;;;;;5074315;28;20697;-71
2022/05/27 01:40:49;;;;;;;2.87;2.60;;;15.60;99.90;;;;;;5073178;28;20766;-70
2022/05/27 01:43:20;;;;;;;3.73;2.57;;;15.60;99.90;;;;;;5074584;28;20572;-70
2022/05/27 01:45:55;;;;;;;2.43;2.07;;;15.60;99.90;;;;;;5074495;28;20609;-71
2022/05/27 01:48:27;;;;;;;2.97;2.30;;;15.60;99.90;;;;;;5075473;28;20642;-71
2022/05/27 01:51:01;;;;;;;3.80;2.43;;;15.60;99.90;;;;;;5075677;28;20198;-71
2022/05/27 01:53:31;;;;;;;6.13;2.80;;;15.60;99.90;;;;;;5074100;28;20254;-70
2022/05/27 01:56:06;;;;;;;4.10;2.57;;;15.60;99.90;;;;;;5072182;28;20291;-70
2022/05/27 01:58:39;;;;;;;4.80;2.23;;;15.60;99.90;;;;;;5076128;28;20231;-70
2022/05/27 02:01:12;;;;;;;6.47;2.60;;;15.60;99.90;;;;;;5072250;28;20201;-70
2022/05/27 02:03:43;;;;;;;5.87;2.60;;;15.60;99.90;;;;;;5086040;28;20235;-71
2022/05/27 02:06:14;;;;;;;3.83;2.60;;;15.60;99.90;;;;;;5073971;28;20237;-71
2022/05/27 02:08:47;;;;;;;5.17;2.67;;;15.60;99.90;;;;;;5071841;28;20220;-70
2022/05/27 02:11:17;;;;;;;6.97;2.47;;;15.60;99.90;;;;;;5074271;28;20388;-71
2022/05/27 02:13:49;;;;;;;4.87;2.77;;;15.60;99.90;;;;;;5074114;28;20274;-70
2022/05/27 02:16:21;;;;;;;5.27;2.57;;;15.60;99.90;;;;;;5073528;28;20236;-70
2022/05/27 02:18:52;;;;;;;7.40;2.50;;;15.60;99.90;;;;;;5067812;28;20265;-70
2022/05/27 02:21:24;;;;;;;3.47;2.27;;;15.60;99.90;;;;;;5077331;28;20213;-71
2022/05/27 02:23:55;;;;;;;3.47;2.70;;;15.60;99.90;;;;;;5073785;28;20201;-71
2022/05/27 02:26:28;;;;;;;3.27;2.67;;;15.70;99.90;;;;;;5073102;28;20201;-71
2022/05/27 02:29:00;;;;;;;7.70;2.90;;;15.70;99.90;;;;;;5074425;28;20239;-70
2022/05/27 02:31:31;;;;;;;2.67;2.30;;;15.70;99.90;;;;;;5076155;28;20194;-70
2022/05/27 02:36:53;;;;;;;3.30;2.60;;;15.70;99.90;;;;;;5083998;28;20323;-70
2022/05/27 02:39:21;;;;;;;4.10;2.17;;;15.70;99.90;;;;;;5074900;28;20208;-70
2022/05/27 02:41:57;;;;;;;8.20;2.47;;;15.70;99.90;;;;;;5075144;28;20209;-71
2022/05/27 02:44:27;;;;;;;3.87;2.80;;;15.80;99.90;;;;;;5062268;28;20653;-70
2022/05/27 02:47:04;;;;;;;3.70;2.37;;;15.80;99.90;;;;;;5063753;28;20762;-71
2022/05/27 02:49:39;;;;;;;4.10;2.60;;;15.80;99.90;;;;;;5074429;28;20311;-70
2022/05/27 02:52:15;;;;;;;2.80;2.50;;;15.80;99.90;;;;;;5073212;28;20205;-70
2022/05/27 02:54:48;;;;;;;5.53;2.77;;;15.80;99.90;;;;;;5056780;28;20317;-70
2022/05/27 02:57:19;;;;;;;4.40;2.70;;;15.80;99.90;;;;;;5070771;28;20204;-70
2022/05/27 02:59:47;;;;;;;6.20;2.77;;;15.80;99.90;;;;;;5073733;28;20201;-70
2022/05/27 03:02:17;;;;;;;4.70;2.40;;;15.80;99.90;;;;;;5073055;28;20203;-70
2022/05/27 03:04:48;;;;;;;3.10;2.77;;;15.80;99.90;;;;;;5072168;28;20205;-71
2022/05/27 03:07:29;;;;;;;3.63;2.17;;;15.80;99.90;;;;;;5074772;28;20288;-71
2022/05/27 03:10:06;;;;;;;3.73;2.77;;;15.80;99.90;;;;;;5074031;28;20209;-70
2022/05/27 03:12:44;;;;;;;4.37;2.50;;;15.80;99.90;;;;;;5073478;28;20201;-70
2022/05/27 03:15:26;;;;;;;3.47;2.20;;;15.80;99.90;;;;;;5074640;28;20787;-70
2022/05/27 03:18:06;;;;;;;2.60;2.40;;;15.80;99.90;;;;;;5074523;28;20301;-70
2022/05/27 03:20:47;;;;;;;4.37;2.30;;;15.80;99.90;;;;;;5073220;28;20234;-70
2022/05/27 03:23:46;;;;;;;6.23;2.80;;;15.80;99.90;;;;;;5072929;28;20564;-71
2022/05/27 03:26:21;;;;;;;3.03;2.30;;;15.80;99.90;;;;;;5073889;28;20236;-70
2022/05/27 03:28:57;;;;;;;3.83;2.20;;;15.80;99.90;;;;;;5077538;28;20286;-70
2022/05/27 03:31:30;;;;;;;4.37;2.50;;;15.80;99.90;;;;;;5073679;28;20209;-70
2022/05/27 03:34:07;;;;;;;3.93;2.10;;;15.80;99.90;;;;;;5075872;28;20197;-71
2022/05/27 03:36:40;;;;;;;5.17;2.70;;;15.80;99.90;;;;;;5078606;28;20214;-71
2022/05/27 03:39:12;;;;;;;2.80;2.50;;;15.80;99.90;;;;;;5084770;28;20255;-71
2022/05/27 03:41:43;;;;;;;3.60;2.67;;;15.80;99.90;;;;;;5075790;28;20283;-70
2022/05/27 03:44:16;;;;;;;5.93;2.77;;;15.80;99.90;;;;;;5092743;28;20681;-70
2022/05/27 03:46:43;;;;;;;8.77;2.50;;;15.80;99.90;;;;;;5077889;28;20330;-71
2022/05/27 03:49:11;;;;;;;6.17;2.60;;;15.80;99.90;;;;;;5077094;28;20225;-71
2022/05/27 03:51:44;;;;;;;3.77;2.43;;;15.80;99.90;;;;;;5069370;28;20202;-70
2022/05/27 03:54:14;;;;;;;3.63;2.57;;;15.80;99.90;;;;;;5075862;28;20205;-71
2022/05/27 03:56:43;;;;;;;3.70;2.20;;;15.90;99.90;;;;;;5077261;28;20218;-70
2022/05/27 03:59:11;;;;;;;5.07;2.60;;;15.90;99.90;;;;;;5073728;28;20240;-70
2022/05/27 04:01:41;;;;;;;3.93;2.60;;;15.80;99.90;;;;;;5077189;28;20672;-70
2022/05/27 04:04:10;;;;;;;7.17;2.80;;;15.90;99.90;;;;;;5077354;28;20211;-71
2022/05/27 04:06:39;;;;;;;7.00;2.70;;;15.80;99.90;;;;;;5068726;28;20210;-71
2022/05/27 04:09:06;;;;;;;4.60;3.10;;;15.80;99.90;;;;;;5078091;28;20567;-71
2022/05/27 04:11:34;;;;;;;5.10;3.13;;;15.80;99.90;;;;;;5076837;28;20201;-70
2022/05/27 04:14:02;;;;;;;7.37;3.70;;;15.70;99.90;;;;;;5077214;28;20658;-70
2022/05/27 04:16:29;;;;;;;5.63;3.50;;;15.70;99.90;;;;;;5075843;28;20201;-71
2022/05/27 04:18:56;;;;;;;6.37;3.90;;;15.70;99.90;;;;;;5077608;28;20205;-71
2022/05/27 04:21:23;;;;;;;4.93;4.10;;;15.60;99.90;;;;;;5076026;28;20221;-71
2022/05/27 04:23:52;;;;;;;7.83;4.60;;;15.60;99.90;;;;;;5073382;28;20210;-71
2022/05/27 04:26:19;;;;;;;5.70;4.10;;;15.50;99.90;;;;;;5072676;28;20205;-70
2022/05/27 04:28:46;;;;;;;5.60;4.77;;;15.50;99.90;;;;;;5076396;28;20781;-70
2022/05/27 04:31:13;;;;;;;10.33;5.67;;;15.40;99.90;;;;;;5077659;28;20662;-71
2022/05/27 04:33:40;;;;;;;5.63;4.30;;;15.40;99.90;;;;;;5075835;28;20213;-71
2022/05/27 04:36:08;;;;;;;5.47;4.33;;;15.40;99.90;;;;;;5068461;28;20204;-71
2022/05/27 04:38:36;;;;;;;5.20;4.13;;;15.30;99.90;;;;;;5076974;28;20304;-71
2022/05/27 04:41:05;;;;;;;6.27;4.87;;;15.30;99.90;;;;;;5071706;28;20757;-70
2022/05/27 04:43:33;;;;;;;7.33;5.07;;;15.20;99.90;;;;;;5071646;28;20650;-70
2022/05/27 04:46:00;;;;;;;8.00;4.80;;;15.30;99.90;;;;;;5064188;28;20634;-70
2022/05/27 04:48:27;;;;;;;6.17;5.53;;;15.30;99.90;;;;;;5077160;28;20208;-71
2022/05/27 04:50:54;;;;;;;10.50;4.97;;;15.20;99.90;;;;;;5074138;28;20673;-70
2022/05/27 04:53:21;;;;;;;6.50;4.60;;;15.20;99.90;;;;;;5081282;28;20295;-70
2022/05/27 04:55:48;;;;;;;10.07;4.93;;;15.20;99.90;;;;;;5088734;28;20251;-71
2022/05/27 04:58:17;;;;;;;5.20;4.67;;;15.20;99.90;;;;;;5065315;28;20227;-70
2022/05/27 05:00:46;;;;;;;8.73;4.67;;;15.30;99.90;;;;;;5077673;28;20268;-70
2022/05/27 05:03:14;;;;;;;9.03;5.03;;;15.30;99.90;;;;;;5084917;28;20202;-71
2022/05/27 05:05:41;;;;;;;6.47;4.83;;;15.20;99.90;;;;;;5092970;28;20657;-71
2022/05/27 05:08:14;;;;;;;6.10;4.83;;;15.20;99.90;;;;;;5077301;28;20297;-70
2022/05/27 05:10:41;;;;;;;7.97;5.17;;;15.20;99.90;;;;;;5082408;28;20221;-71
2022/05/27 05:13:08;;;;;;;6.20;4.73;;;15.20;99.90;;;;;;5073898;28;20289;-71
2022/05/27 05:15:38;;;;;;;6.10;5.50;;;15.10;99.90;;;;;;5073752;28;20271;-71
2022/05/27 05:18:05;;;;;;;7.83;5.30;;;15.10;99.90;;;;;;5075366;28;20217;-69
2022/05/27 05:20:33;;;;;;;7.33;5.27;;;15.10;99.90;;;;;;5088601;28;20291;-71
2022/05/27 05:23:00;;;;;;;8.10;5.67;;;15.10;99.90;;;;;;5076177;28;20662;-71
2022/05/27 05:25:28;;;;;;;8.97;5.17;;;15.10;99.90;;;;;;5076034;28;20212;-71
2022/05/27 05:27:55;;;;;;;8.20;6.20;;;15.10;99.90;;;;;;5075498;28;20243;-70
2022/05/27 05:30:24;;;;;;;8.67;5.73;;;15.10;99.90;;;;;;5075701;28;20240;-71
2022/05/27 05:32:52;;;;;;;9.53;5.70;;;15.10;99.90;;;;;;5070585;28;20292;-69
2022/05/27 05:35:20;;;;;;;7.50;5.20;;;15.00;99.90;;;;;;5071906;28;20223;-70
2022/05/27 05:37:46;;;;;;;6.07;5.17;;;15.10;99.90;;;;;;5076200;28;20219;-70
2022/05/27 05:40:14;;;;;;;7.07;5.73;;;15.10;99.90;;;;;;5066178;28;20231;-71
2022/05/27 05:42:42;;;;;;;8.97;6.00;;;15.00;99.90;;;;;;5073814;28;20225;-71
2022/05/27 05:45:12;;;;;;;6.83;5.53;;;15.00;99.90;;;;;;5075739;28;20717;-70
2022/05/27 05:47:39;;;;;;;7.83;6.07;;;15.00;99.90;;;;;;5071684;28;20205;-71
2022/05/27 05:50:08;;;;;;;10.57;6.70;;;14.90;99.90;;;;;;5075458;28;20316;-70
2022/05/27 05:52:35;;;;;;;7.97;6.20;;;14.90;99.90;;;;;;5074379;28;20312;-72
2022/05/27 05:55:03;;;;;;;8.77;5.50;;;14.90;99.90;;;;;;5068365;28;20242;-70
2022/05/27 05:57:31;;;;;;;7.63;5.87;;;14.90;99.90;;;;;;5083407;28;20205;-71
2022/05/27 06:00:00;;;;;;;9.13;5.57;;;14.90;99.90;;;;;;5069456;28;20231;-71
2022/05/27 06:02:26;;;;;;;8.73;6.20;;;14.90;99.90;;;;;;5069976;28;20267;-71
2022/05/27 06:04:53;;;;;;;7.43;6.67;;;14.90;99.90;;;;;;5075344;28;20245;-71
2022/05/27 06:07:22;;;;;;;7.93;5.90;;;14.90;99.90;;;;;;5076767;28;20297;-71
2022/05/27 06:09:48;;;;;;;10.63;6.23;;;15.00;99.90;;;;;;5074696;28;20257;-71
2022/05/27 06:12:22;;;;;;;9.10;6.07;;;14.90;99.90;;;;;;5074610;28;20224;-70
2022/05/27 06:14:48;;;;;;;6.33;5.73;;;15.00;99.90;;;;;;5073594;28;20229;-71
2022/05/27 06:17:15;;;;;;;7.53;5.60;;;15.00;99.90;;;;;;5084502;28;20773;-70
2022/05/27 06:19:42;;;;;;;8.67;5.30;;;15.30;99.90;;;;;;5080593;28;20383;-69
2022/05/27 06:22:09;;;;;;;10.60;5.70;;;15.10;99.90;;;;;;5084299;28;20239;-69
2022/05/27 06:24:38;;;;;;;10.30;5.70;;;15.20;99.90;;;;;;5084461;28;20219;-71
2022/05/27 06:27:06;;;;;;;8.83;5.33;;;15.30;99.90;;;;;;5082316;28;20657;-70
2022/05/27 06:35:02;;;;;;;6.90;4.80;;;15.50;99.90;;;;;;5084350;28;20297;-70
2022/05/27 06:37:29;;;;;;;6.23;5.23;;;15.50;99.90;;;;;;5072936;28;20209;-70
2022/05/27 06:39:58;;;;;;;7.60;5.33;;;15.50;99.90;;;;;;5072194;28;20292;-70
2022/05/27 06:42:25;;;;;;;6.47;4.97;;;15.60;99.90;;;;;;5075759;28;20210;-71
2022/05/27 06:44:52;;;;;;;7.23;5.00;;;15.70;99.90;;;;;;5078136;28;20308;-69
2022/05/27 06:47:19;;;;;;;8.70;4.87;;;15.60;99.90;;;;;;5079268;28;20231;-71
2022/05/27 06:49:46;;;;;;;8.07;4.40;;;15.60;99.90;;;;;;5066869;28;20608;-71
2022/05/27 06:52:15;;;;;;;8.60;5.53;;;15.70;99.90;;;;;;5073759;28;20291;-71
2022/05/27 06:54:42;;;;;;;6.37;5.50;;;15.70;99.90;;;;;;5080360;28;20647;-74
2022/05/27 06:57:11;;;;;;;6.40;5.10;;;15.70;99.90;;;;;;5084621;28;20247;-74
2022/05/27 06:59:39;;;;;;;5.60;4.77;;;15.80;99.90;;;;;;5074459;28;20209;-71
2022/05/27 07:02:07;;;;;;;8.13;5.30;;;15.80;99.90;;;;;;5078996;28;20658;-70
2022/05/27 07:04:34;;;;;;;5.90;4.83;;;15.80;99.90;;;;;;5076492;28;20713;-70
2022/05/27 07:07:04;;;;;;;11.57;4.70;;;15.80;99.90;;;;;;5070119;28;20219;-70
2022/05/27 07:09:35;;;;;;;6.90;5.13;;;15.90;99.90;;;;;;5076984;28;20768;-70
2022/05/27 07:12:04;;;;;;;7.07;5.40;;;15.90;99.90;;;;;;5080429;28;20732;-71
2022/05/27 07:14:33;;;;;;;6.00;5.07;;;16.00;99.90;;;;;;5077271;28;20612;-70
2022/05/27 07:17:00;;;;;;;7.03;4.60;;;16.00;99.90;;;;;;5077967;28;20241;-71
2022/05/27 07:19:27;;;;;;;6.80;4.37;;;16.00;99.90;;;;;;5081982;28;20231;-70
2022/05/27 07:21:56;;;;;;;8.97;5.13;;;16.00;99.90;;;;;;5080857;28;20205;-71
2022/05/27 07:24:23;;;;;;;4.90;4.40;;;16.10;99.90;;;;;;5076709;28;20601;-70
2022/05/27 07:26:51;;;;;;;8.57;4.93;;;16.00;99.90;;;;;;5076282;28;20355;-71
2022/05/27 07:29:18;;;;;;;7.77;5.17;;;16.00;99.90;;;;;;5083909;28;20279;-71
2022/05/27 07:31:47;;;;;;;5.87;5.20;;;16.00;99.90;;;;;;5069757;28;20229;-72
2022/05/27 07:34:14;;;;;;;7.37;5.13;;;16.00;99.90;;;;;;5076239;28;20213;-70
2022/05/27 07:36:41;;;;;;;6.70;5.07;;;15.90;99.90;;;;;;5077111;28;20201;-72
2022/05/27 07:39:08;;;;;;;6.67;4.47;;;15.90;99.90;;;;;;5084464;28;20232;-74
2022/05/27 07:41:37;;;;;;;6.20;5.00;;;15.90;99.90;;;;;;5085497;28;20215;-70
2022/05/27 07:44:05;;;;;;;5.93;4.90;;;15.90;99.90;;;;;;5073773;28;20275;-70
2022/05/27 07:46:33;;;;;;;6.27;4.70;;;15.90;99.90;;;;;;5080074;28;20210;-69
2022/05/27 07:49:04;;;;;;;7.13;4.97;;;15.80;99.90;;;;;;5083949;28;20269;-70
2022/05/27 07:51:31;;;;;;;8.43;4.40;;;15.90;99.90;;;;;;5083806;28;20221;-69
2022/05/27 07:53:58;;;;;;;5.87;5.10;;;15.90;99.90;;;;;;5091837;28;20201;-72
2022/05/27 07:56:25;;;;;;;7.23;4.30;;;16.00;99.90;;;;;;5076462;28;20209;-71
2022/05/27 07:58:52;;;;;;;7.23;4.80;;;16.00;99.90;;;;;;5071879;28;20240;-72
2022/05/27 08:01:19;;;;;;;5.40;4.50;;;16.10;99.90;;;;;;5090973;28;20218;-72
2022/05/27 08:03:46;;;;;;;6.37;4.80;;;16.10;99.90;;;;;;5087924;28;20343;-71
2022/05/27 08:06:14;;;;;;;6.27;4.77;;;16.10;99.90;;;;;;5087207;28;20285;-72
2022/05/27 08:08:41;;;;;;;7.03;4.70;;;16.10;99.90;;;;;;5081546;28;20263;-71
2022/05/27 08:11:08;;;;;;;5.53;4.27;;;16.10;99.90;;;;;;5089085;28;20874;-72
2022/05/27 08:13:36;;;;;;;8.17;4.37;;;16.10;99.90;;;;;;5072681;28;20205;-71
2022/05/27 08:16:03;;;;;;;6.03;4.37;;;16.20;99.90;;;;;;5078154;28;20335;-71
2022/05/27 08:18:30;;;;;;;6.33;4.17;;;16.20;99.90;;;;;;5092361;28;20240;-71
2022/05/27 08:20:59;;;;;;;5.13;4.50;;;16.20;99.90;;;;;;5090400;28;20266;-71
2022/05/27 08:23:27;;;;;;;5.83;5.03;;;16.30;99.90;;;;;;5085432;28;20754;-71
2022/05/27 08:25:55;;;;;;;7.23;4.83;;;16.20;99.90;;;;;;5081897;28;20278;-72
2022/05/27 08:28:24;;;;;;;6.30;4.73;;;16.30;99.90;;;;;;5079432;28;20206;-70
2022/05/27 08:30:55;;;;;;;6.50;4.90;;;16.30;99.90;;;;;;5079250;28;20277;-71
2022/05/27 08:33:21;;;;;;;6.67;4.90;;;16.20;99.90;;;;;;5071349;28;20201;-70
2022/05/27 08:38:35;;;;;;;6.57;5.10;;;16.30;99.90;;;;;;5075202;28;20215;-70
2022/05/27 08:41:25;;;;;;;6.17;5.57;;;16.30;99.90;;;;;;5074968;28;20611;-70
2022/05/27 08:44:26;;;;;;;5.60;5.10;;;16.30;99.90;;;;;;5061925;28;20295;-70
2022/05/27 08:47:03;;;;;;;6.73;5.07;;;16.40;99.90;;;;;;5069479;28;20632;-70
2022/05/27 08:49:34;;;;;;;5.83;4.83;;;16.40;99.90;;;;;;5066598;28;20241;-70
2022/05/27 08:52:07;;;;;;;9.67;4.87;;;16.40;99.90;;;;;;5066168;28;20267;-70
2022/05/27 08:54:40;;;;;;;5.23;4.37;;;16.40;99.90;;;;;;5075071;28;20251;-70
2022/05/27 08:59:58;;;;;;;6.07;4.30;;;16.40;99.90;;;;;;5076420;28;20234;-71
2022/05/27 09:02:31;;;;;;;6.47;4.47;;;16.40;99.90;;;;;;5071081;28;20288;-71
2022/05/27 09:05:15;;;;;;;5.60;4.97;;;16.40;99.90;;;;;;5077199;28;20201;-71
2022/05/27 09:07:47;;;;;;;5.37;4.87;;;16.40;99.90;;;;;;5070392;28;20581;-71
2022/05/27 09:10:20;;;;;;;5.90;4.30;;;16.50;99.90;;;;;;5076070;28;20279;-71
2022/05/27 09:12:58;;;;;;;6.03;4.67;;;16.40;99.90;;;;;;5074267;28;20188;-70
2022/05/27 09:15:40;;;;;;;4.50;4.10;;;16.50;99.90;;;;;;5080589;28;20720;-71
2022/05/27 09:18:20;;;;;;;6.10;4.90;;;16.50;99.90;;;;;;5075120;28;20569;-70
2022/05/27 09:21:02;;;;;;;4.40;3.92;;;16.60;99.90;;;;;;5067153;28;20216;-72
2022/05/27 09:23:47;;;;;;;4.63;4.00;;;16.60;99.90;;;;;;5066488;28;20216;-71
2022/05/27 09:26:20;;;;;;;3.60;3.30;;;16.60;99.90;;;;;;5077991;28;20284;-72
2022/05/27 09:28:57;;;;;;;3.63;3.33;;;16.60;99.90;;;;;;5076176;28;20271;-74
2022/05/27 09:31:31;;;;;;;4.88;3.72;;;16.60;99.90;;;;;;5075557;28;20720;-72
2022/05/27 09:33:58;;;;;;;3.67;3.33;;;16.60;99.90;;;;;;5076305;28;20212;-71
2022/05/27 09:36:34;;;;;;;3.97;3.58;;;16.70;99.90;;;;;;5077476;28;20852;-72
2022/05/27 09:39:05;;;;;;;3.95;3.60;;;16.70;99.90;;;;;;5073915;28;20209;-71
2022/05/27 09:41:43;;;;;;;3.92;3.53;;;16.80;99.90;;;;;;5074964;28;20204;-75
2022/05/27 09:44:24;;;;;;;3.97;3.10;;;16.80;99.90;;;;;;5086688;28;20208;-71
2022/05/27 09:46:51;;;;;;;3.40;2.92;;;16.90;99.90;;;;;;5079607;28;20249;-71
2022/05/27 09:49:18;;;;;;;3.33;3.03;;;16.90;99.90;;;;;;5081647;28;20259;-71
2022/05/27 09:51:45;;;;;;;3.25;2.80;;;17.00;99.90;;;;;;5079716;28;20304;-71
2022/05/27 09:54:25;;;;;;;4.10;2.80;;;17.10;99.90;;;;;;5080202;28;20205;-71
2022/05/27 09:57:25;;;;;;;3.05;2.75;;;17.20;99.90;;;;;;5083695;28;20204;-72
2022/05/27 09:59:56;;;;;;;4.95;2.50;;;17.20;99.90;;;;;;5087032;28;20244;-72
2022/05/27 10:02:28;;;;;;;2.45;2.25;;;17.30;99.90;;;;;;5087486;28;20229;-71
2022/05/27 10:04:58;;;;;;;3.28;2.40;;;17.10;99.90;;;;;;5074485;28;20209;-71
2022/05/27 10:07:29;;;;;;;2.75;2.42;;;17.20;99.90;;;;;;5072379;28;20331;-71
2022/05/27 10:09:56;;;;;;;2.40;2.20;;;17.10;99.90;;;;;;5080542;28;20203;-70
2022/05/27 10:12:32;;;;;;;3.28;2.00;;;17.00;99.90;;;;;;5068396;28;20229;-72
2022/05/27 10:15:00;;;;;;;1.95;1.85;;;17.00;99.90;;;;;;5068303;28;20237;-71
2022/05/27 10:17:31;;;;;;;7.65;2.22;;;16.90;99.90;;;;;;5071194;28;20201;-72
2022/05/27 10:20:17;;;;;;;4.35;2.08;;;16.80;99.90;;;;;;5072408;28;20296;-72
2022/05/27 10:22:59;;;;;;;3.50;2.28;;;16.70;99.90;;;;;;5074810;28;20204;-74
2022/05/27 10:25:38;;;;;;;2.22;1.92;;;16.70;99.90;;;;;;5074061;28;20197;-72
2022/05/27 10:28:11;;;;;;;3.03;1.83;;;16.60;99.90;;;;;;5068427;28;20201;-73
2022/05/27 10:30:42;;;;;;;5.20;1.60;;;16.50;99.90;;;;;;5077122;28;20566;-71
2022/05/27 10:33:19;;;;;;;2.53;1.40;;;16.40;99.90;;;;;;5074464;28;20254;-72
2022/05/27 10:35:48;;;;;;;2.47;2.28;;;16.40;99.90;;;;;;5073485;28;20247;-72
2022/05/27 10:38:40;;;;;;;2.58;2.38;;;16.30;99.90;;;;;;5071907;28;20254;-72
2022/05/27 10:41:16;;;;;;;2.10;1.80;;;16.20;99.90;;;;;;5074751;28;20201;-72
2022/05/27 10:44:06;;;;;;;2.00;1.48;;;16.20;99.90;;;;;;5070175;28;20204;-72
2022/05/27 10:46:39;;;;;;;1.97;1.33;;;16.20;99.90;;;;;;5067742;28;20263;-73
2022/05/27 10:49:54;;;;;;;1.50;1.30;;;16.20;99.90;;;;;;5073651;28;20205;-72
2022/05/27 10:52:36;;;;;;;2.57;0.97;;;16.10;99.90;;;;;;5054773;28;20663;-72
2022/05/27 10:55:12;;;;;;;5.47;1.27;;;16.10;99.90;;;;;;5074880;28;20212;-71
2022/05/27 11:04:03;;;;;;;2.47;1.23;;;16.00;99.90;;;;;;5071946;28;20204;-72
2022/05/27 11:06:56;;;;;;;2.70;1.50;;;16.00;99.90;;;;;;5062750;28;20649;-71
2022/05/27 11:09:34;;;;;;;1.80;1.50;;;16.00;99.90;;;;;;5068600;28;20291;-73
2022/05/27 11:12:07;;;;;;;2.60;1.00;;;16.10;99.90;;;;;;5062449;28;20221;-72
2022/05/27 11:17:43;;;;;;;1.43;0.90;;;16.10;99.90;;;;;;5078236;28;20199;-71
2022/05/27 11:20:39;;;;;;;2.30;1.23;;;16.20;99.90;;;;;;5071536;28;20202;-73
2022/05/27 11:23:20;;;;;;;2.00;0.87;;;16.20;99.90;;;;;;5065958;28;20213;-73
2022/05/27 11:26:06;;;;;;;1.17;1.00;;;16.20;99.60;;;;;;5072836;28;20205;-71
2022/05/27 11:29:20;;;;;;;1.93;1.10;;;16.30;99.50;;;;;;5066641;28;20305;-72
2022/05/27 11:31:57;;;;;;;2.33;0.80;;;16.40;99.40;;;;;;5010029;28;20227;-72
2022/05/27 11:34:28;;;;;;;1.47;1.00;;;16.40;99.10;;;;;;5062154;28;20223;-72
2022/05/27 11:37:21;;;;;;;2.50;1.15;;;16.50;99.10;;;;;;5071611;28;20193;-73
2022/05/27 11:40:09;;;;;;;2.05;1.02;;;16.50;98.90;;;;;;5060302;28;20202;-72
2022/05/27 11:43:11;;;;;;;1.40;1.30;;;16.50;98.30;;;;;;5083338;28;20211;-72
2022/05/27 11:45:44;;;;;;;1.47;0.90;;;16.50;98.30;;;;;;5090147;28;20224;-72
2022/05/27 11:48:16;;;;;;;0.87;0.87;;;16.50;97.90;;;;;;5084488;28;20526;-72
2022/05/27 11:51:16;;;;;;;1.20;1.10;;;16.50;97.80;;;;;;5075806;28;20251;-70
2022/05/27 11:54:01;;;;;;;1.80;0.93;;;16.50;97.80;;;;;;5032349;28;20213;-71
2022/05/27 11:56:40;;;;;;;1.52;0.98;;;16.60;97.90;;;;;;5076393;28;20197;-71
2022/05/27 11:59:15;;;;;;;1.75;1.00;;;16.70;98.00;;;;;;5076763;28;20247;-70
2022/05/27 12:01:48;;;;;;;0.83;0.83;;;16.80;97.80;;;;;;5075266;28;20284;-71
2022/05/27 12:04:27;;;;;;;1.83;0.88;;;16.80;97.30;;;;;;5077938;28;20205;-72
2022/05/27 12:07:05;;;;;;;1.25;0.93;;;16.90;97.20;;;;;;5070335;28;20255;-73
2022/05/27 12:09:37;;;;;;;1.73;0.90;;;16.90;97.10;;;;;;5073273;28;20228;-70
2022/05/27 12:12:08;;;;;;;2.03;1.17;;;16.90;97.10;;;;;;5068648;28;20236;-70
2022/05/27 12:14:39;;;;;;;3.27;1.10;;;16.90;97.00;;;;;;5074578;28;20610;-72
2022/05/27 12:17:12;;;;;;;1.57;1.00;;;16.80;97.00;;;;;;5084176;28;20280;-71
2022/05/27 12:19:45;;;;;;;2.10;1.20;;;16.80;97.30;;;;;;5086190;28;20197;-71
2022/05/27 12:22:21;;;;;;;1.13;0.98;;;16.80;97.50;;;;;;5086255;28;20198;-71
2022/05/27 12:24:54;;;;;;;3.50;0.87;;;16.80;97.60;;;;;;5069984;28;20263;-72
2022/05/27 12:27:21;;;;;;;2.50;1.10;;;16.80;97.90;;;;;;5090262;28;20412;-73
2022/05/27 12:29:51;;;;;;;4.73;1.50;;;16.80;98.00;;;;;;5090946;28;20236;-72
2022/05/27 12:32:21;;;;;;;3.35;1.10;;;16.80;98.20;;;;;;5081766;28;20248;-72
2022/05/27 12:34:49;;;;;;;2.77;1.33;;;16.80;98.40;;;;;;5069892;28;20644;-71
2022/05/27 12:37:28;;;;;;;1.83;1.00;;;16.80;98.60;;;;;;5077308;28;20232;-71
2022/05/27 12:40:24;;;;;;;3.05;1.40;;;16.80;98.60;;;;;;5073940;28;20205;-71
2022/05/27 12:42:55;;;;;;;5.20;1.27;;;16.70;98.70;;;;;;5063995;28;20221;-71
2022/05/27 12:45:37;;;;;;;1.60;1.03;;;16.60;99.00;;;;;;5084011;28;20204;-72
2022/05/27 12:48:07;;;;;;;1.77;1.20;;;16.60;99.20;;;;;;5087893;28;20273;-71
2022/05/27 12:50:38;;;;;;;2.37;1.20;;;16.60;99.60;;;;;;5076676;28;20225;-73
2022/05/27 12:53:17;;;;;;;1.27;1.17;;;16.60;99.80;;;;;;5086813;28;20215;-71
2022/05/27 13:01:29;;;;;;;2.97;1.10;;;16.70;99.90;;;;;;5071861;28;20196;-72
2022/05/27 13:03:59;;;;;;;1.53;1.43;;;16.90;99.90;;;;;;5083737;28;20197;-72
2022/05/27 13:06:41;;;;;;;2.27;1.43;;;17.10;99.90;;;;;;5075259;28;20672;-72
2022/05/27 13:09:12;;;;;;;1.30;1.20;;;17.30;99.90;;;;;;5080753;28;20240;-71
2022/05/27 13:11:46;;;;;;;2.50;1.20;;;17.30;99.90;;;;;;5080167;28;20198;-72
2022/05/27 13:14:25;;;;;;;2.80;1.40;;;17.40;99.70;;;;;;5091483;28;20548;-72
2022/05/27 13:17:04;;;;;;;1.27;1.15;;;17.50;99.80;;;;;;5067569;28;20278;-72
2022/05/27 13:19:36;;;;;;;2.38;1.50;;;17.50;99.70;;;;;;5073318;28;20227;-73
2022/05/27 13:22:11;;;;;;;1.58;1.30;;;17.60;99.90;;;;;;5081394;28;20181;-72
2022/05/27 13:24:41;;;;;;;1.92;1.27;;;17.70;99.40;;;;;;5085124;28;20533;-72
2022/05/27 13:27:26;;;;;;;1.77;1.52;;;17.70;98.70;;;;;;5076342;28;20197;-72
2022/05/27 13:30:07;;;;;;;3.40;1.15;;;17.70;98.50;;;;;;5083061;28;20217;-71
2022/05/27 13:32:37;;;;;;;2.65;1.30;;;17.60;98.60;;;;;;5078573;28;20221;-74
2022/05/27 13:35:10;;;;;;;1.33;1.20;;;17.60;98.70;;;;;;5078523;28;20224;-72
2022/05/27 13:37:50;;;;;;;1.58;1.33;;;17.70;98.90;;;;;;5080152;28;20205;-73
2022/05/27 13:40:25;;;;;;;2.70;1.60;;;17.80;98.90;;;;;;5077873;28;20205;-74
2022/05/27 13:42:54;;;;;;;1.90;1.30;;;17.80;98.90;;;;;;5078145;28;20671;-73
2022/05/27 13:45:29;;;;;;;1.48;1.35;;;17.70;99.00;;;;;;5072897;28;20210;-72